Munds Park, AZ (86017)

5:59 PM MST on February 27, 2015 (GMT -0700)
Munds Park Crystal Brook | Change Station
CLOSE
Current Station
Personal Weather Station
Location: Munds Park, AZ
Elevation: 6598 ft
Nearby Weather Stations
Active Advisory: Wind Advisory

Elev 6598 ft 34.94 °N, 111.64 °W | Updated 19 seconds ago

Overcast
Overcast
42.6 °F
Feels Like 43 °F
N
0.4
Wind Variable Wind from SW
Gusts 2.5 mph

Today
High -- | Low -- °F
--% Chance of Precip.
Yesterday
High -- | Low -- °F
Precip. -- in
6:58 AM 6:20 PM
Waxing Gibbous, 73% visible
Pressure 29.70 in
Visibility 10.0 miles
Clouds Overcast 8000 ft
Windchill 43 °F
Dew Point 24 °F
Humidity 47%
Rainfall 0.00 in
Snow Depth Not available.
UV 0.0 out of 12
Pollen 6.90 out of 12
Air Quality Not available.
Flu Activity Not available.
METAR KSEZ 280035Z AUTO 00000KT 10SM OVC080 10/M01 A2970 RMK AO2

More Conditions Fewer Conditions

Pressure 29.70 in
Visibility 10.0 miles
Clouds Overcast 8000 ft
Windchill 43 °F
Dew Point 24 °F
Humidity 47%
Rainfall 0.00 in
Snow Depth Not available.
UV 0.0 out of 12
Pollen 6.90 out of 12
Air Quality Not available.
Flu Activity Not available.
METAR KSEZ 280035Z AUTO 00000KT 10SM OVC080 10/M01 A2970 RMK AO2

More Conditions Fewer Conditions

10-Day Weather Forecast

Almanac

Astronomy

Feb. 27, 2015 Rise Set
Actual Time
Civil Twilight
Nautical Twilight
Astronomical Twilight
Moon
Length of Visible Light
Length of Day
Tomorrow will be .
, % of the Moon is Illuminated

Today's Extremes

State Highs State Lows

Community

WunderPhotos

Upload Photos

1,800,910 photos uploaded!

WunderBlogs® & News

Nearby

Air Quality

  Air Quality AQ Index Pollutant
Not available.

Snow Depth

Station Depth Elevation

Earthquake Activity

City Distance Mag. Time & Date
Minimum magnitude displayed is 2.5.

Coastal Water Temperatures

Place Temperature

Nearby Weather Stations

Wind Advisory
Statement as of 5:24 PM MST on February 27, 2015

... Wind Advisory in effect from 11 am to 7 PM MST Saturday...

The National Weather Service in Flagstaff has issued a Wind
Advisory... which is in effect from 11 am to 7 PM MST Saturday.

* Timing... gusty winds will develop mid to late morning Saturday
and continue through early evening. Locally gusty winds will
persist overnight Saturday ahead of an approaching cold front.


* Winds... southwest 20 to 30 with gusts from 40 to 50 mph.

* Impacts... winds this strong can make driving difficult...
especially for high profile vehicles.

Precautionary/preparedness actions...

A Wind Advisory means that sustained winds of 30 to 39 mph... or
gusts from 40 to 57 mph... are expected. Winds this strong can
make driving difficult... especially for high profile vehicles.
Consider securing loose belongings on your property. Additional
weather information is on the web at www.Weather.Gov/Flagstaff.